sensor_id;sensor_type;location;lat;lon;timestamp;P1;durP1;ratioP1;P2;durP2;ratioP2
17866;SDS011;9059;49.934;8.650;2023-08-30T00:04:28;1.33;;;0.60;;
17866;SDS011;9059;49.934;8.650;2023-08-30T00:14:31;3.40;;;0.55;;
17866;SDS011;9059;49.934;8.650;2023-08-30T00:24:36;1.88;;;0.70;;
17866;SDS011;9059;49.934;8.650;2023-08-30T00:34:39;1.33;;;0.88;;
17866;SDS011;9059;49.934;8.650;2023-08-30T00:44:43;0.70;;;0.55;;
17866;SDS011;9059;49.934;8.650;2023-08-30T00:54:46;5.82;;;0.80;;
17866;SDS011;9059;49.934;8.650;2023-08-30T01:16:12;3.33;;;0.80;;
17866;SDS011;9059;49.934;8.650;2023-08-30T01:26:20;3.10;;;1.15;;
17866;SDS011;9059;49.934;8.650;2023-08-30T01:36:30;2.15;;;0.88;;
17866;SDS011;9059;49.934;8.650;2023-08-30T01:46:34;0.90;;;0.80;;
17866;SDS011;9059;49.934;8.650;2023-08-30T01:56:38;1.77;;;0.95;;
17866;SDS011;9059;49.934;8.650;2023-08-30T02:06:42;2.25;;;1.13;;
17866;SDS011;9059;49.934;8.650;2023-08-30T02:16:49;5.15;;;1.20;;
17866;SDS011;9059;49.934;8.650;2023-08-30T02:26:53;5.43;;;1.10;;
17866;SDS011;9059;49.934;8.650;2023-08-30T02:36:57;2.35;;;1.13;;
17866;SDS011;9059;49.934;8.650;2023-08-30T02:47:00;2.55;;;1.10;;
17866;SDS011;9059;49.934;8.650;2023-08-30T02:57:04;8.32;;;0.98;;
17866;SDS011;9059;49.934;8.650;2023-08-30T03:07:07;1.20;;;0.95;;
17866;SDS011;9059;49.934;8.650;2023-08-30T03:17:11;2.13;;;1.10;;
17866;SDS011;9059;49.934;8.650;2023-08-30T03:27:14;3.38;;;1.25;;
17866;SDS011;9059;49.934;8.650;2023-08-30T03:37:19;4.65;;;1.20;;
17866;SDS011;9059;49.934;8.650;2023-08-30T03:47:22;2.20;;;1.27;;
17866;SDS011;9059;49.934;8.650;2023-08-30T03:57:26;3.83;;;1.40;;
17866;SDS011;9059;49.934;8.650;2023-08-30T04:07:29;2.25;;;1.30;;
17866;SDS011;9059;49.934;8.650;2023-08-30T04:17:33;2.17;;;1.15;;
17866;SDS011;9059;49.934;8.650;2023-08-30T04:27:36;4.05;;;1.60;;
17866;SDS011;9059;49.934;8.650;2023-08-30T04:37:40;4.88;;;1.80;;
17866;SDS011;9059;49.934;8.650;2023-08-30T04:47:44;6.85;;;1.70;;
17866;SDS011;9059;49.934;8.650;2023-08-30T04:57:48;6.63;;;2.13;;
17866;SDS011;9059;49.934;8.650;2023-08-30T05:07:51;4.32;;;2.60;;
17866;SDS011;9059;49.934;8.650;2023-08-30T05:17:55;8.50;;;3.53;;
17866;SDS011;9059;49.934;8.650;2023-08-30T05:27:58;5.75;;;3.53;;
17866;SDS011;9059;49.934;8.650;2023-08-30T05:38:02;6.20;;;3.47;;
17866;SDS011;9059;49.934;8.650;2023-08-30T05:48:05;5.88;;;3.45;;
17866;SDS011;9059;49.934;8.650;2023-08-30T05:58:10;4.18;;;1.95;;
17866;SDS011;9059;49.934;8.650;2023-08-30T06:08:13;10.20;;;2.22;;
17866;SDS011;9059;49.934;8.650;2023-08-30T06:18:17;9.13;;;3.78;;
17866;SDS011;9059;49.934;8.650;2023-08-30T06:28:20;7.80;;;4.35;;
17866;SDS011;9059;49.934;8.650;2023-08-30T06:38:24;6.07;;;3.80;;
17866;SDS011;9059;49.934;8.650;2023-08-30T06:48:27;7.93;;;3.83;;
17866;SDS011;9059;49.934;8.650;2023-08-30T06:58:31;8.90;;;3.75;;
17866;SDS011;9059;49.934;8.650;2023-08-30T07:08:34;9.52;;;4.35;;
17866;SDS011;9059;49.934;8.650;2023-08-30T07:18:38;9.50;;;4.32;;
17866;SDS011;9059;49.934;8.650;2023-08-30T07:28:42;8.07;;;4.70;;
17866;SDS011;9059;49.934;8.650;2023-08-30T07:38:46;8.55;;;4.93;;
17866;SDS011;9059;49.934;8.650;2023-08-30T07:48:49;7.25;;;4.53;;
17866;SDS011;9059;49.934;8.650;2023-08-30T07:58:54;8.27;;;5.28;;
17866;SDS011;9059;49.934;8.650;2023-08-30T08:08:57;10.50;;;5.45;;
17866;SDS011;9059;49.934;8.650;2023-08-30T08:19:02;8.13;;;5.05;;
17866;SDS011;9059;49.934;8.650;2023-08-30T08:29:05;9.43;;;5.28;;
17866;SDS011;9059;49.934;8.650;2023-08-30T08:39:09;11.60;;;6.07;;
17866;SDS011;9059;49.934;8.650;2023-08-30T08:49:13;8.77;;;5.07;;
17866;SDS011;9059;49.934;8.650;2023-08-30T08:59:17;8.90;;;5.63;;
17866;SDS011;9059;49.934;8.650;2023-08-30T09:09:22;11.27;;;5.60;;
17866;SDS011;9059;49.934;8.650;2023-08-30T09:19:26;6.75;;;4.63;;
17866;SDS011;9059;49.934;8.650;2023-08-30T09:29:29;6.80;;;4.65;;
17866;SDS011;9059;49.934;8.650;2023-08-30T09:39:34;5.70;;;4.00;;
17866;SDS011;9059;49.934;8.650;2023-08-30T09:49:39;9.03;;;5.53;;
17866;SDS011;9059;49.934;8.650;2023-08-30T09:59:47;6.18;;;3.83;;
17866;SDS011;9059;49.934;8.650;2023-08-30T10:09:51;5.95;;;4.07;;
17866;SDS011;9059;49.934;8.650;2023-08-30T10:20:11;4.53;;;2.78;;
17866;SDS011;9059;49.934;8.650;2023-08-30T10:30:15;6.80;;;3.75;;
17866;SDS011;9059;49.934;8.650;2023-08-30T10:40:20;4.70;;;2.85;;
17866;SDS011;9059;49.934;8.650;2023-08-30T10:50:33;3.85;;;2.58;;
17866;SDS011;9059;49.934;8.650;2023-08-30T11:00:38;4.03;;;2.40;;
17866;SDS011;9059;49.934;8.650;2023-08-30T11:10:42;2.85;;;1.98;;
17866;SDS011;9059;49.934;8.650;2023-08-30T11:20:47;4.55;;;2.40;;
17866;SDS011;9059;49.934;8.650;2023-08-30T11:30:52;3.63;;;2.00;;
17866;SDS011;9059;49.934;8.650;2023-08-30T11:40:57;1.30;;;1.00;;
17866;SDS011;9059;49.934;8.650;2023-08-30T11:51:00;2.60;;;1.40;;
17866;SDS011;9059;49.934;8.650;2023-08-30T12:01:04;2.50;;;1.60;;
17866;SDS011;9059;49.934;8.650;2023-08-30T12:11:16;2.67;;;1.52;;
17866;SDS011;9059;49.934;8.650;2023-08-30T12:21:21;3.20;;;1.67;;
17866;SDS011;9059;49.934;8.650;2023-08-30T12:31:24;3.72;;;1.83;;
17866;SDS011;9059;49.934;8.650;2023-08-30T12:41:30;4.20;;;2.22;;
17866;SDS011;9059;49.934;8.650;2023-08-30T12:51:34;2.63;;;1.75;;
17866;SDS011;9059;49.934;8.650;2023-08-30T13:01:39;2.70;;;1.73;;
17866;SDS011;9059;49.934;8.650;2023-08-30T13:11:42;6.25;;;1.80;;
17866;SDS011;9059;49.934;8.650;2023-08-30T13:21:46;3.78;;;1.90;;
17866;SDS011;9059;49.934;8.650;2023-08-30T13:31:49;4.32;;;2.00;;
17866;SDS011;9059;49.934;8.650;2023-08-30T13:41:53;3.67;;;1.80;;
17866;SDS011;9059;49.934;8.650;2023-08-30T13:51:56;3.33;;;2.00;;
17866;SDS011;9059;49.934;8.650;2023-08-30T14:02:00;7.13;;;1.83;;
17866;SDS011;9059;49.934;8.650;2023-08-30T14:12:05;3.03;;;1.98;;
17866;SDS011;9059;49.934;8.650;2023-08-30T14:22:10;5.40;;;2.00;;
17866;SDS011;9059;49.934;8.650;2023-08-30T14:32:13;4.35;;;2.03;;
17866;SDS011;9059;49.934;8.650;2023-08-30T14:42:17;4.82;;;2.38;;
17866;SDS011;9059;49.934;8.650;2023-08-30T14:52:20;5.65;;;2.20;;
17866;SDS011;9059;49.934;8.650;2023-08-30T15:02:24;4.00;;;2.38;;
17866;SDS011;9059;49.934;8.650;2023-08-30T15:12:27;2.97;;;2.15;;
17866;SDS011;9059;49.934;8.650;2023-08-30T15:22:31;4.43;;;2.38;;
17866;SDS011;9059;49.934;8.650;2023-08-30T15:32:34;5.65;;;1.80;;
17866;SDS011;9059;49.934;8.650;2023-08-30T15:42:39;5.18;;;1.67;;
17866;SDS011;9059;49.934;8.650;2023-08-30T15:52:42;1.88;;;1.17;;
17866;SDS011;9059;49.934;8.650;2023-08-30T16:02:48;2.00;;;1.20;;
17866;SDS011;9059;49.934;8.650;2023-08-30T16:12:53;4.25;;;1.48;;
17866;SDS011;9059;49.934;8.650;2023-08-30T16:22:57;2.40;;;1.40;;
17866;SDS011;9059;49.934;8.650;2023-08-30T16:33:01;3.20;;;1.70;;
17866;SDS011;9059;49.934;8.650;2023-08-30T16:43:05;4.60;;;1.73;;
17866;SDS011;9059;49.934;8.650;2023-08-30T16:53:08;7.95;;;1.40;;
17866;SDS011;9059;49.934;8.650;2023-08-30T17:03:12;6.90;;;1.38;;
17866;SDS011;9059;49.934;8.650;2023-08-30T17:13:16;2.90;;;1.35;;
17866;SDS011;9059;49.934;8.650;2023-08-30T17:23:21;2.10;;;1.25;;
17866;SDS011;9059;49.934;8.650;2023-08-30T17:33:25;4.53;;;1.30;;
17866;SDS011;9059;49.934;8.650;2023-08-30T17:43:30;6.78;;;1.90;;
17866;SDS011;9059;49.934;8.650;2023-08-30T17:53:33;1.80;;;1.20;;
17866;SDS011;9059;49.934;8.650;2023-08-30T18:03:37;3.47;;;1.23;;
17866;SDS011;9059;49.934;8.650;2023-08-30T18:13:41;2.85;;;1.55;;
17866;SDS011;9059;49.934;8.650;2023-08-30T18:34:15;2.88;;;0.60;;
17866;SDS011;9059;49.934;8.650;2023-08-30T18:44:19;0.60;;;0.35;;
17866;SDS011;9059;49.934;8.650;2023-08-30T18:54:22;1.27;;;0.40;;
17866;SDS011;9059;49.934;8.650;2023-08-30T19:04:29;2.80;;;0.50;;
17866;SDS011;9059;49.934;8.650;2023-08-30T19:14:34;1.33;;;0.65;;
17866;SDS011;9059;49.934;8.650;2023-08-30T19:24:38;0.63;;;0.40;;
17866;SDS011;9059;49.934;8.650;2023-08-30T19:34:41;0.43;;;0.20;;
17866;SDS011;9059;49.934;8.650;2023-08-30T19:44:46;0.28;;;0.22;;
17866;SDS011;9059;49.934;8.650;2023-08-30T19:54:49;1.10;;;0.60;;
17866;SDS011;9059;49.934;8.650;2023-08-30T20:04:53;0.77;;;0.45;;
17866;SDS011;9059;49.934;8.650;2023-08-30T20:14:57;0.82;;;0.30;;
17866;SDS011;9059;49.934;8.650;2023-08-30T20:25:01;1.65;;;0.47;;
17866;SDS011;9059;49.934;8.650;2023-08-30T20:35:05;0.95;;;0.55;;
17866;SDS011;9059;49.934;8.650;2023-08-30T20:45:10;1.08;;;0.68;;
17866;SDS011;9059;49.934;8.650;2023-08-30T20:55:13;2.15;;;0.50;;
17866;SDS011;9059;49.934;8.650;2023-08-30T21:05:25;0.73;;;0.45;;
17866;SDS011;9059;49.934;8.650;2023-08-30T21:15:28;4.50;;;0.73;;
17866;SDS011;9059;49.934;8.650;2023-08-30T21:25:36;2.97;;;0.70;;
17866;SDS011;9059;49.934;8.650;2023-08-30T21:35:40;1.80;;;0.85;;
17866;SDS011;9059;49.934;8.650;2023-08-30T21:45:45;1.08;;;0.60;;
17866;SDS011;9059;49.934;8.650;2023-08-30T21:55:47;3.78;;;0.80;;
17866;SDS011;9059;49.934;8.650;2023-08-30T22:05:55;2.38;;;0.95;;
17866;SDS011;9059;49.934;8.650;2023-08-30T22:16:02;3.65;;;1.00;;
17866;SDS011;9059;49.934;8.650;2023-08-30T22:26:06;3.25;;;1.10;;
17866;SDS011;9059;49.934;8.650;2023-08-30T22:36:09;2.50;;;1.00;;
17866;SDS011;9059;49.934;8.650;2023-08-30T22:46:13;2.65;;;1.00;;
17866;SDS011;9059;49.934;8.650;2023-08-30T22:56:16;3.55;;;1.50;;
17866;SDS011;9059;49.934;8.650;2023-08-30T23:06:20;1.70;;;1.17;;
17866;SDS011;9059;49.934;8.650;2023-08-30T23:16:23;4.93;;;1.10;;
17866;SDS011;9059;49.934;8.650;2023-08-30T23:26:27;3.22;;;1.42;;
17866;SDS011;9059;49.934;8.650;2023-08-30T23:36:30;1.95;;;1.10;;
17866;SDS011;9059;49.934;8.650;2023-08-30T23:46:35;2.20;;;1.13;;
17866;SDS011;9059;49.934;8.650;2023-08-30T23:56:39;7.55;;;1.27;;
